»·PEaware :: BADGR13 KEND-KEND

BADGR13 :: KEND-KEND

FLIGHT INFORMATION

Flight Status: Arrived
Operator: Unknown
More flights by this operator :: More flights under this callsign
Pilot: Abraham G. (22221)
Aircraft: BEECH AIRCRAFT T-6A TEXAN
(TEX2)
More flights by this aircraft type
Origin: KEND Vance AFB
United States
Destination: KEND Vance AFB
United States
More flights between these airports :: More routes between these airports
Route: +DF
File this flight plan on PilotEdge
Remarks:
Altitude:
(Current/Filed)
0ft
Speed:
(Current/Filed)
0kts
Departed: 01-Mar-20 07:21 AM
Arrived: 01-Mar-20 08:25 AM
Distance/Time
Traveled:
0nm/1:04
Distance/Time
To Go:
Arrived

Flight Plot

Page will automatically refresh every two minutes.

Flight plan parsing failed; only flown route is shown


Map Options




Map Legend


Flown Route
Filed Route
Departure Airport
Arrival Airport
Navaid (VOR, NDB)
Fix

Horizontal Profiles

Position Reports

Time Latitude Longitude Heading Altitude Ground
Speed
01-Mar-20 07:13 36.333447 -97.910316 304 1291ft 0kts
01-Mar-20 07:14 36.333447 -97.910316 304 1291ft 0kts
01-Mar-20 07:15 36.333447 -97.910316 304 1291ft 0kts
01-Mar-20 07:16 36.333447 -97.910316 304 1291ft 0kts
01-Mar-20 07:17 36.333447 -97.910316 304 1291ft 0kts
01-Mar-20 07:18 36.333447 -97.910316 304 1291ft 0kts
01-Mar-20 07:19 36.333447 -97.910316 304 1291ft 0kts
01-Mar-20 07:20 36.336547 -97.911082 357 1289ft 86kts
01-Mar-20 07:21 36.384980 -97.912853 356 2350ft 220kts
01-Mar-20 07:22 36.443602 -97.912367 1 5024ft 232kts
01-Mar-20 07:23 36.513451 -97.907518 3 5106ft 246kts
01-Mar-20 07:24 36.579836 -97.901838 4 5028ft 234kts
01-Mar-20 07:25 36.646053 -97.895515 3 4958ft 239kts
01-Mar-20 07:26 36.713610 -97.903177 337 3643ft 237kts
01-Mar-20 07:27 36.738466 -97.968410 271 2360ft 214kts
01-Mar-20 07:28 36.738830 -98.043868 269 2205ft 219kts
01-Mar-20 07:29 36.784862 -98.073195 0 2088ft 222kts
01-Mar-20 07:30 36.807602 -98.110722 235 2400ft 204kts
01-Mar-20 07:31 36.770776 -98.122236 180 1883ft 109kts
01-Mar-20 07:32 36.740674 -98.123410 180 1206ft 105kts
01-Mar-20 07:33 36.699768 -98.110728 73 2647ft 194kts
01-Mar-20 07:34 36.750295 -98.105235 357 2292ft 158kts
01-Mar-20 07:35 36.755394 -98.122506 184 1484ft 117kts
01-Mar-20 07:36 36.721198 -98.124274 179 1491ft 188kts
01-Mar-20 07:37 36.723362 -98.105468 0 2346ft 210kts
01-Mar-20 07:38 36.767122 -98.082498 66 2600ft 186kts
01-Mar-20 07:39 36.797304 -98.102246 270 2843ft 204kts
01-Mar-20 07:41 36.754301 -98.123073 181 2405ft 192kts
01-Mar-20 07:42 36.747274 -98.114091 357 1662ft 105kts
01-Mar-20 07:43 36.734145 -98.123817 177 1332ft 162kts
01-Mar-20 07:44 36.709564 -98.106314 1 2574ft 207kts
01-Mar-20 07:45 36.762151 -98.090357 56 2627ft 213kts
01-Mar-20 07:46 36.812836 -98.081155 280 3924ft 183kts
01-Mar-20 07:47 36.793292 -98.121991 179 2719ft 124kts
01-Mar-20 07:48 36.756311 -98.123067 182 2395ft 171kts
01-Mar-20 07:49 36.747029 -98.111072 2 1988ft 131kts
01-Mar-20 07:50 36.746412 -98.123139 181 1261ft 113kts
01-Mar-20 07:51 36.700527 -98.124875 156 2081ft 218kts
01-Mar-20 07:52 36.743624 -98.106759 2 2339ft 204kts
01-Mar-20 07:53 36.755713 -98.123148 177 1499ft 122kts
01-Mar-20 07:54 36.717832 -98.124635 179 1521ft 200kts
01-Mar-20 07:55 36.668789 -98.117700 109 3331ft 220kts
01-Mar-20 07:56 36.711468 -98.089782 359 3372ft 211kts
01-Mar-20 07:57 36.770528 -98.088426 4 2378ft 219kts
01-Mar-20 07:58 36.765440 -98.126086 171 2639ft 246kts
01-Mar-20 07:59 36.693403 -98.127571 183 3109ft 253kts
01-Mar-20 08:00 36.682737 -98.069139 63 4489ft 251kts
01-Mar-20 08:00 36.703101 -98.001280 84 5390ft 257kts
01-Mar-20 08:02 36.694583 -97.901193 110 6317ft 253kts
01-Mar-20 08:03 36.666237 -97.820149 133 5761ft 266kts
01-Mar-20 08:03 36.610457 -97.804238 178 5307ft 261kts
01-Mar-20 08:05 36.534366 -97.787800 180 6364ft 244kts
01-Mar-20 08:05 36.477507 -97.789417 180 6303ft 244kts
01-Mar-20 08:06 36.410089 -97.790194 179 6156ft 242kts
01-Mar-20 08:08 36.330639 -97.798822 186 5708ft 247kts
01-Mar-20 08:08 36.274215 -97.810716 190 5143ft 246kts
01-Mar-20 08:09 36.207981 -97.832527 200 4036ft 247kts
01-Mar-20 08:10 36.198290 -97.889912 327 2348ft 197kts
01-Mar-20 08:11 36.252914 -97.908206 0 2378ft 208kts
01-Mar-20 08:12 36.309561 -97.911198 359 2340ft 194kts
01-Mar-20 08:13 36.335821 -97.895994 182 2293ft 107kts
01-Mar-20 08:14 36.330172 -97.910892 355 1455ft 126kts
01-Mar-20 08:15 36.371068 -97.905414 73 2221ft 193kts
01-Mar-20 08:16 36.321535 -97.897416 196 2191ft 120kts
01-Mar-20 08:17 36.339625 -97.910990 0 1349ft 132kts
01-Mar-20 08:18 36.393655 -97.903048 41 2465ft 231kts
01-Mar-20 08:19 36.443149 -97.852025 15 3302ft 245kts
01-Mar-20 08:20 36.441840 -97.889737 178 2785ft 177kts
01-Mar-20 08:21 36.390765 -97.903586 204 2560ft 210kts
01-Mar-20 08:22 36.341567 -97.908171 127 2442ft 156kts
01-Mar-20 08:23 36.352053 -97.910814 181 1595ft 101kts
01-Mar-20 08:24 36.334744 -97.910919 179 1290ft 26kts

Navigation Log

Ident Type
Flight plan parsing failed, navigation log unavailable